sensor_id;sensor_type;location;lat;lon;timestamp;temperature;humidity
3086;DHT22;52812;48.960;9.108;2023-07-20T00:01:25;19.50;99.90
3086;DHT22;52812;48.960;9.108;2023-07-20T00:03:50;19.50;99.90
3086;DHT22;52812;48.960;9.108;2023-07-20T00:06:21;19.50;99.90
3086;DHT22;52812;48.960;9.108;2023-07-20T00:08:46;19.50;99.90
3086;DHT22;52812;48.960;9.108;2023-07-20T00:11:12;19.50;99.90
3086;DHT22;52812;48.960;9.108;2023-07-20T00:13:39;19.60;99.90
3086;DHT22;52812;48.960;9.108;2023-07-20T00:16:05;19.60;99.90
3086;DHT22;52812;48.960;9.108;2023-07-20T00:18:30;19.60;99.90
3086;DHT22;52812;48.960;9.108;2023-07-20T00:20:56;19.50;99.90
3086;DHT22;52812;48.960;9.108;2023-07-20T00:23:21;19.50;99.90
3086;DHT22;52812;48.960;9.108;2023-07-20T00:25:48;19.40;99.90
3086;DHT22;52812;48.960;9.108;2023-07-20T00:28:14;19.40;99.90
3086;DHT22;52812;48.960;9.108;2023-07-20T00:30:40;19.40;99.90
3086;DHT22;52812;48.960;9.108;2023-07-20T00:33:09;19.30;99.90
3086;DHT22;52812;48.960;9.108;2023-07-20T00:35:35;19.20;99.90
3086;DHT22;52812;48.960;9.108;2023-07-20T00:38:01;19.20;99.90
3086;DHT22;52812;48.960;9.108;2023-07-20T00:40:26;19.10;99.90
3086;DHT22;52812;48.960;9.108;2023-07-20T00:42:52;19.00;99.90
3086;DHT22;52812;48.960;9.108;2023-07-20T00:45:18;18.90;99.90
3086;DHT22;52812;48.960;9.108;2023-07-20T00:47:43;18.80;99.90
3086;DHT22;52812;48.960;9.108;2023-07-20T00:50:09;18.70;99.90
3086;DHT22;52812;48.960;9.108;2023-07-20T00:52:36;18.60;99.90
3086;DHT22;52812;48.960;9.108;2023-07-20T00:55:05;18.60;99.90
3086;DHT22;52812;48.960;9.108;2023-07-20T00:57:32;18.60;99.90
3086;DHT22;52812;48.960;9.108;2023-07-20T00:59:58;18.40;99.90
3086;DHT22;52812;48.960;9.108;2023-07-20T01:02:23;18.40;99.90
3086;DHT22;52812;48.960;9.108;2023-07-20T01:04:49;18.40;99.90
3086;DHT22;52812;48.960;9.108;2023-07-20T01:07:28;18.40;99.90
3086;DHT22;52812;48.960;9.108;2023-07-20T01:10:12;18.30;99.90
3086;DHT22;52812;48.960;9.108;2023-07-20T01:12:47;18.20;99.90
3086;DHT22;52812;48.960;9.108;2023-07-20T01:15:13;18.20;99.90
3086;DHT22;52812;48.960;9.108;2023-07-20T01:17:39;18.20;99.90
3086;DHT22;52812;48.960;9.108;2023-07-20T01:20:06;18.00;99.90
3086;DHT22;52812;48.960;9.108;2023-07-20T01:31:32;17.50;99.90
3086;DHT22;52812;48.960;9.108;2023-07-20T01:34:01;17.40;99.90
3086;DHT22;52812;48.960;9.108;2023-07-20T01:36:30;17.40;99.90
3086;DHT22;52812;48.960;9.108;2023-07-20T01:38:56;17.30;99.90
3086;DHT22;52812;48.960;9.108;2023-07-20T01:41:22;17.20;99.90
3086;DHT22;52812;48.960;9.108;2023-07-20T01:43:48;17.10;99.90
3086;DHT22;52812;48.960;9.108;2023-07-20T01:46:14;17.10;99.90
3086;DHT22;52812;48.960;9.108;2023-07-20T01:48:39;17.00;99.90
3086;DHT22;52812;48.960;9.108;2023-07-20T01:51:05;17.00;99.90
3086;DHT22;52812;48.960;9.108;2023-07-20T01:53:30;17.00;99.90
3086;DHT22;52812;48.960;9.108;2023-07-20T01:55:59;17.00;99.90
3086;DHT22;52812;48.960;9.108;2023-07-20T01:58:24;17.00;99.90
3086;DHT22;52812;48.960;9.108;2023-07-20T02:00:50;16.90;99.90
3086;DHT22;52812;48.960;9.108;2023-07-20T02:03:16;17.10;99.90
3086;DHT22;52812;48.960;9.108;2023-07-20T02:05:45;17.10;99.90
3086;DHT22;52812;48.960;9.108;2023-07-20T02:08:10;17.00;99.90
3086;DHT22;52812;48.960;9.108;2023-07-20T02:10:36;17.00;99.90
3086;DHT22;52812;48.960;9.108;2023-07-20T02:13:02;17.10;99.90
3086;DHT22;52812;48.960;9.108;2023-07-20T02:15:27;17.10;99.90
3086;DHT22;52812;48.960;9.108;2023-07-20T02:17:53;17.00;99.90
3086;DHT22;52812;48.960;9.108;2023-07-20T02:20:19;17.00;99.90
3086;DHT22;52812;48.960;9.108;2023-07-20T02:22:45;17.00;99.90
3086;DHT22;52812;48.960;9.108;2023-07-20T02:25:10;16.90;99.90
3086;DHT22;52812;48.960;9.108;2023-07-20T02:27:37;16.80;99.90
3086;DHT22;52812;48.960;9.108;2023-07-20T02:30:03;16.70;99.90
3086;DHT22;52812;48.960;9.108;2023-07-20T02:32:30;16.60;99.90
3086;DHT22;52812;48.960;9.108;2023-07-20T02:34:55;16.60;99.90
3086;DHT22;52812;48.960;9.108;2023-07-20T02:37:21;16.50;99.90
3086;DHT22;52812;48.960;9.108;2023-07-20T02:39:46;16.50;99.90
3086;DHT22;52812;48.960;9.108;2023-07-20T02:42:12;16.50;99.90
3086;DHT22;52812;48.960;9.108;2023-07-20T02:44:38;16.50;99.90
3086;DHT22;52812;48.960;9.108;2023-07-20T02:47:04;16.50;99.90
3086;DHT22;52812;48.960;9.108;2023-07-20T02:49:29;16.40;99.90
3086;DHT22;52812;48.960;9.108;2023-07-20T02:51:55;16.30;99.90
3086;DHT22;52812;48.960;9.108;2023-07-20T02:54:21;16.30;99.90
3086;DHT22;52812;48.960;9.108;2023-07-20T02:56:46;16.20;99.90
3086;DHT22;52812;48.960;9.108;2023-07-20T02:59:12;16.20;99.90
3086;DHT22;52812;48.960;9.108;2023-07-20T03:01:37;16.10;99.90
3086;DHT22;52812;48.960;9.108;2023-07-20T03:04:03;16.10;99.90
3086;DHT22;52812;48.960;9.108;2023-07-20T03:06:29;16.10;99.90
3086;DHT22;52812;48.960;9.108;2023-07-20T03:08:55;16.00;99.90
3086;DHT22;52812;48.960;9.108;2023-07-20T03:11:21;15.90;99.90
3086;DHT22;52812;48.960;9.108;2023-07-20T03:13:46;15.80;99.90
3086;DHT22;52812;48.960;9.108;2023-07-20T03:16:14;15.70;99.90
3086;DHT22;52812;48.960;9.108;2023-07-20T03:18:41;15.70;99.90
3086;DHT22;52812;48.960;9.108;2023-07-20T03:21:08;15.70;99.90
3086;DHT22;52812;48.960;9.108;2023-07-20T03:23:34;15.60;99.90
3086;DHT22;52812;48.960;9.108;2023-07-20T03:26:00;15.50;99.90
3086;DHT22;52812;48.960;9.108;2023-07-20T03:28:26;15.50;99.90
3086;DHT22;52812;48.960;9.108;2023-07-20T03:30:55;15.50;99.90
3086;DHT22;52812;48.960;9.108;2023-07-20T03:33:24;15.50;99.90
3086;DHT22;52812;48.960;9.108;2023-07-20T03:35:50;15.50;99.90
3086;DHT22;52812;48.960;9.108;2023-07-20T03:38:15;15.50;99.90
3086;DHT22;52812;48.960;9.108;2023-07-20T03:40:52;15.50;99.90
3086;DHT22;52812;48.960;9.108;2023-07-20T03:43:18;15.50;99.90
3086;DHT22;52812;48.960;9.108;2023-07-20T03:45:43;15.50;99.90
3086;DHT22;52812;48.960;9.108;2023-07-20T03:48:11;15.50;99.90
3086;DHT22;52812;48.960;9.108;2023-07-20T03:50:36;15.30;99.90
3086;DHT22;52812;48.960;9.108;2023-07-20T03:53:02;15.20;99.90
3086;DHT22;52812;48.960;9.108;2023-07-20T03:55:27;15.20;99.90
3086;DHT22;52812;48.960;9.108;2023-07-20T03:57:53;15.10;99.90
3086;DHT22;52812;48.960;9.108;2023-07-20T04:00:23;15.10;99.90
3086;DHT22;52812;48.960;9.108;2023-07-20T04:02:49;15.20;99.90
3086;DHT22;52812;48.960;9.108;2023-07-20T04:05:14;15.20;99.90
3086;DHT22;52812;48.960;9.108;2023-07-20T04:07:40;15.20;99.90
3086;DHT22;52812;48.960;9.108;2023-07-20T04:10:06;15.20;99.90
3086;DHT22;52812;48.960;9.108;2023-07-20T04:12:31;15.20;99.90
3086;DHT22;52812;48.960;9.108;2023-07-20T04:14:57;15.20;99.90
3086;DHT22;52812;48.960;9.108;2023-07-20T04:17:22;15.30;99.90
3086;DHT22;52812;48.960;9.108;2023-07-20T04:19:48;15.30;99.90
3086;DHT22;52812;48.960;9.108;2023-07-20T04:22:13;15.30;99.90
3086;DHT22;52812;48.960;9.108;2023-07-20T04:24:42;15.40;99.90
3086;DHT22;52812;48.960;9.108;2023-07-20T04:27:08;15.50;99.90
3086;DHT22;52812;48.960;9.108;2023-07-20T04:29:33;15.50;99.90
3086;DHT22;52812;48.960;9.108;2023-07-20T04:31:59;15.50;99.90
3086;DHT22;52812;48.960;9.108;2023-07-20T04:34:24;15.50;99.90
3086;DHT22;52812;48.960;9.108;2023-07-20T04:36:50;15.60;99.90
3086;DHT22;52812;48.960;9.108;2023-07-20T04:39:15;15.60;99.90
3086;DHT22;52812;48.960;9.108;2023-07-20T04:41:41;15.70;99.90
3086;DHT22;52812;48.960;9.108;2023-07-20T04:44:06;15.90;99.90
3086;DHT22;52812;48.960;9.108;2023-07-20T04:46:32;16.00;99.90
3086;DHT22;52812;48.960;9.108;2023-07-20T04:48:57;16.20;99.90
3086;DHT22;52812;48.960;9.108;2023-07-20T04:51:23;16.40;99.90
3086;DHT22;52812;48.960;9.108;2023-07-20T04:53:49;16.50;99.90
3086;DHT22;52812;48.960;9.108;2023-07-20T04:56:14;16.60;99.90
3086;DHT22;52812;48.960;9.108;2023-07-20T04:58:40;16.80;99.90
3086;DHT22;52812;48.960;9.108;2023-07-20T05:01:06;16.90;99.90
3086;DHT22;52812;48.960;9.108;2023-07-20T05:03:31;17.10;99.90
3086;DHT22;52812;48.960;9.108;2023-07-20T05:05:57;17.30;99.90
3086;DHT22;52812;48.960;9.108;2023-07-20T05:08:23;17.40;99.90
3086;DHT22;52812;48.960;9.108;2023-07-20T05:10:48;17.60;99.90
3086;DHT22;52812;48.960;9.108;2023-07-20T05:13:16;17.70;99.90
3086;DHT22;52812;48.960;9.108;2023-07-20T05:15:42;17.80;99.90
3086;DHT22;52812;48.960;9.108;2023-07-20T05:18:08;17.90;99.90
3086;DHT22;52812;48.960;9.108;2023-07-20T05:20:34;18.00;99.90
3086;DHT22;52812;48.960;9.108;2023-07-20T05:23:00;18.00;99.90
3086;DHT22;52812;48.960;9.108;2023-07-20T05:25:26;18.00;99.90
3086;DHT22;52812;48.960;9.108;2023-07-20T05:27:52;18.00;99.90
3086;DHT22;52812;48.960;9.108;2023-07-20T05:30:18;18.00;99.90
3086;DHT22;52812;48.960;9.108;2023-07-20T05:32:44;18.10;99.90
3086;DHT22;52812;48.960;9.108;2023-07-20T05:35:13;18.10;99.90
3086;DHT22;52812;48.960;9.108;2023-07-20T05:37:39;18.20;99.90
3086;DHT22;52812;48.960;9.108;2023-07-20T05:40:05;18.30;99.90
3086;DHT22;52812;48.960;9.108;2023-07-20T05:42:33;18.30;99.90
3086;DHT22;52812;48.960;9.108;2023-07-20T05:44:58;18.40;99.90
3086;DHT22;52812;48.960;9.108;2023-07-20T05:47:24;18.50;99.90
3086;DHT22;52812;48.960;9.108;2023-07-20T05:49:49;18.60;99.90
3086;DHT22;52812;48.960;9.108;2023-07-20T05:52:15;18.80;99.90
3086;DHT22;52812;48.960;9.108;2023-07-20T05:54:41;18.80;99.90
3086;DHT22;52812;48.960;9.108;2023-07-20T05:57:07;19.00;99.90
3086;DHT22;52812;48.960;9.108;2023-07-20T05:59:32;19.10;99.90
3086;DHT22;52812;48.960;9.108;2023-07-20T06:01:58;19.40;99.90
3086;DHT22;52812;48.960;9.108;2023-07-20T06:04:23;19.80;99.90
3086;DHT22;52812;48.960;9.108;2023-07-20T06:06:49;20.60;99.90
3086;DHT22;52812;48.960;9.108;2023-07-20T06:09:15;21.30;99.90
3086;DHT22;52812;48.960;9.108;2023-07-20T06:11:40;22.20;99.90
3086;DHT22;52812;48.960;9.108;2023-07-20T06:14:06;23.00;99.90
3086;DHT22;52812;48.960;9.108;2023-07-20T06:16:31;23.70;99.90
3086;DHT22;52812;48.960;9.108;2023-07-20T06:19:00;24.00;99.90
3086;DHT22;52812;48.960;9.108;2023-07-20T06:21:25;24.20;99.90
3086;DHT22;52812;48.960;9.108;2023-07-20T06:23:51;24.30;99.90
3086;DHT22;52812;48.960;9.108;2023-07-20T06:26:17;24.70;99.90
3086;DHT22;52812;48.960;9.108;2023-07-20T06:28:42;24.40;99.90
3086;DHT22;52812;48.960;9.108;2023-07-20T06:31:08;24.30;99.90
3086;DHT22;52812;48.960;9.108;2023-07-20T06:33:33;24.60;99.90
3086;DHT22;52812;48.960;9.108;2023-07-20T06:36:00;25.20;99.90
3086;DHT22;52812;48.960;9.108;2023-07-20T06:38:25;25.60;99.90
3086;DHT22;52812;48.960;9.108;2023-07-20T06:40:52;26.10;99.90
3086;DHT22;52812;48.960;9.108;2023-07-20T06:43:17;26.50;99.90
3086;DHT22;52812;48.960;9.108;2023-07-20T06:45:44;26.60;99.90
3086;DHT22;52812;48.960;9.108;2023-07-20T06:48:10;26.10;99.90
3086;DHT22;52812;48.960;9.108;2023-07-20T06:50:36;26.10;99.90
3086;DHT22;52812;48.960;9.108;2023-07-20T06:53:01;26.40;99.90
3086;DHT22;52812;48.960;9.108;2023-07-20T06:55:29;26.50;99.90
3086;DHT22;52812;48.960;9.108;2023-07-20T06:57:54;26.20;99.90
3086;DHT22;52812;48.960;9.108;2023-07-20T07:00:20;25.90;99.90
3086;DHT22;52812;48.960;9.108;2023-07-20T07:02:46;26.10;99.90
3086;DHT22;52812;48.960;9.108;2023-07-20T07:05:11;26.10;99.90
3086;DHT22;52812;48.960;9.108;2023-07-20T07:07:38;26.10;99.90
3086;DHT22;52812;48.960;9.108;2023-07-20T07:10:04;26.10;99.90
3086;DHT22;52812;48.960;9.108;2023-07-20T07:12:30;26.00;99.90
3086;DHT22;52812;48.960;9.108;2023-07-20T07:14:56;26.50;99.90
3086;DHT22;52812;48.960;9.108;2023-07-20T07:17:22;26.80;99.90
3086;DHT22;52812;48.960;9.108;2023-07-20T07:19:48;26.50;99.90
3086;DHT22;52812;48.960;9.108;2023-07-20T07:22:13;25.80;99.90
3086;DHT22;52812;48.960;9.108;2023-07-20T07:24:39;25.70;99.90
3086;DHT22;52812;48.960;9.108;2023-07-20T07:27:08;26.20;99.90
3086;DHT22;52812;48.960;9.108;2023-07-20T07:29:33;26.00;99.90
3086;DHT22;52812;48.960;9.108;2023-07-20T07:31:59;26.40;99.90
3086;DHT22;52812;48.960;9.108;2023-07-20T07:34:25;26.50;99.90
3086;DHT22;52812;48.960;9.108;2023-07-20T07:36:51;27.00;99.90
3086;DHT22;52812;48.960;9.108;2023-07-20T07:39:17;27.50;99.90
3086;DHT22;52812;48.960;9.108;2023-07-20T07:41:42;27.80;99.90
3086;DHT22;52812;48.960;9.108;2023-07-20T07:44:08;27.50;99.90
3086;DHT22;52812;48.960;9.108;2023-07-20T07:46:33;27.60;99.90
3086;DHT22;52812;48.960;9.108;2023-07-20T07:49:00;27.50;99.90
3086;DHT22;52812;48.960;9.108;2023-07-20T07:51:25;27.60;99.90
3086;DHT22;52812;48.960;9.108;2023-07-20T07:53:52;27.70;99.90
3086;DHT22;52812;48.960;9.108;2023-07-20T07:56:18;28.00;99.90
3086;DHT22;52812;48.960;9.108;2023-07-20T07:58:50;27.70;99.90
3086;DHT22;52812;48.960;9.108;2023-07-20T08:01:19;27.10;99.90
3086;DHT22;52812;48.960;9.108;2023-07-20T08:03:45;27.50;99.90
3086;DHT22;52812;48.960;9.108;2023-07-20T08:06:13;27.00;99.90
3086;DHT22;52812;48.960;9.108;2023-07-20T08:08:38;27.20;99.80
3086;DHT22;52812;48.960;9.108;2023-07-20T08:11:04;27.40;99.50
3086;DHT22;52812;48.960;9.108;2023-07-20T08:13:30;26.30;99.70
3086;DHT22;52812;48.960;9.108;2023-07-20T08:15:56;25.90;99.90
3086;DHT22;52812;48.960;9.108;2023-07-20T08:18:22;26.30;99.90
3086;DHT22;52812;48.960;9.108;2023-07-20T08:20:47;27.40;99.90
3086;DHT22;52812;48.960;9.108;2023-07-20T08:23:14;26.70;99.50
3086;DHT22;52812;48.960;9.108;2023-07-20T08:25:40;26.10;99.90
3086;DHT22;52812;48.960;9.108;2023-07-20T08:28:14;25.50;99.90
3086;DHT22;52812;48.960;9.108;2023-07-20T08:30:49;25.00;99.90
3086;DHT22;52812;48.960;9.108;2023-07-20T08:33:17;25.70;99.90
3086;DHT22;52812;48.960;9.108;2023-07-20T08:35:46;26.60;99.90
3086;DHT22;52812;48.960;9.108;2023-07-20T08:38:12;27.40;99.90
3086;DHT22;52812;48.960;9.108;2023-07-20T08:40:47;27.60;99.00
3086;DHT22;52812;48.960;9.108;2023-07-20T08:43:14;27.50;98.10
3086;DHT22;52812;48.960;9.108;2023-07-20T08:45:42;26.90;97.70
3086;DHT22;52812;48.960;9.108;2023-07-20T08:48:12;26.40;98.60
3086;DHT22;52812;48.960;9.108;2023-07-20T08:50:38;25.70;99.00
3086;DHT22;52812;48.960;9.108;2023-07-20T08:53:04;26.20;99.30
3086;DHT22;52812;48.960;9.108;2023-07-20T08:55:31;26.40;98.10
3086;DHT22;52812;48.960;9.108;2023-07-20T08:58:00;26.80;98.30
3086;DHT22;52812;48.960;9.108;2023-07-20T09:00:26;27.10;97.50
3086;DHT22;52812;48.960;9.108;2023-07-20T09:02:55;26.90;96.20
3086;DHT22;52812;48.960;9.108;2023-07-20T09:05:23;27.20;97.80
3086;DHT22;52812;48.960;9.108;2023-07-20T09:07:49;27.30;97.90
3086;DHT22;52812;48.960;9.108;2023-07-20T09:10:14;26.90;96.50
3086;DHT22;52812;48.960;9.108;2023-07-20T09:12:41;26.10;96.80
3086;DHT22;52812;48.960;9.108;2023-07-20T09:15:08;26.00;97.20
3086;DHT22;52812;48.960;9.108;2023-07-20T09:17:34;25.80;96.80
3086;DHT22;52812;48.960;9.108;2023-07-20T09:20:04;25.80;96.40
3086;DHT22;52812;48.960;9.108;2023-07-20T09:22:33;25.90;97.30
3086;DHT22;52812;48.960;9.108;2023-07-20T09:24:59;25.80;97.30
3086;DHT22;52812;48.960;9.108;2023-07-20T09:27:46;25.30;98.50
3086;DHT22;52812;48.960;9.108;2023-07-20T09:30:13;25.10;98.50
3086;DHT22;52812;48.960;9.108;2023-07-20T09:32:42;24.40;96.90
3086;DHT22;52812;48.960;9.108;2023-07-20T09:35:30;24.40;96.30
3086;DHT22;52812;48.960;9.108;2023-07-20T09:38:00;24.60;96.20
3086;DHT22;52812;48.960;9.108;2023-07-20T09:40:29;24.70;96.70
3086;DHT22;52812;48.960;9.108;2023-07-20T09:42:55;24.80;97.10
3086;DHT22;52812;48.960;9.108;2023-07-20T09:45:39;24.60;97.90
3086;DHT22;52812;48.960;9.108;2023-07-20T09:48:06;25.20;98.40
3086;DHT22;52812;48.960;9.108;2023-07-20T09:50:40;24.70;96.80
3086;DHT22;52812;48.960;9.108;2023-07-20T09:53:08;24.70;96.10
3086;DHT22;52812;48.960;9.108;2023-07-20T09:55:34;25.00;96.90
3086;DHT22;52812;48.960;9.108;2023-07-20T09:58:00;25.20;96.70
3086;DHT22;52812;48.960;9.108;2023-07-20T10:00:26;25.60;98.00
3086;DHT22;52812;48.960;9.108;2023-07-20T10:02:52;25.30;96.90
3086;DHT22;52812;48.960;9.108;2023-07-20T10:05:19;24.80;96.70
3086;DHT22;52812;48.960;9.108;2023-07-20T10:07:48;24.90;97.30
3086;DHT22;52812;48.960;9.108;2023-07-20T10:10:15;24.60;96.70
3086;DHT22;52812;48.960;9.108;2023-07-20T10:12:42;24.80;95.70
3086;DHT22;52812;48.960;9.108;2023-07-20T10:15:35;24.60;94.90
3086;DHT22;52812;48.960;9.108;2023-07-20T10:20:47;25.10;97.30
3086;DHT22;52812;48.960;9.108;2023-07-20T10:23:14;25.30;96.20
3086;DHT22;52812;48.960;9.108;2023-07-20T10:25:40;24.90;95.30
3086;DHT22;52812;48.960;9.108;2023-07-20T10:28:08;25.20;95.40
3086;DHT22;52812;48.960;9.108;2023-07-20T10:30:35;25.20;96.00
3086;DHT22;52812;48.960;9.108;2023-07-20T10:33:05;25.50;95.60
3086;DHT22;52812;48.960;9.108;2023-07-20T10:36:11;25.50;96.80
3086;DHT22;52812;48.960;9.108;2023-07-20T10:41:33;25.50;93.20
3086;DHT22;52812;48.960;9.108;2023-07-20T10:44:05;25.30;94.70
3086;DHT22;52812;48.960;9.108;2023-07-20T10:49:04;24.80;96.50
3086;DHT22;52812;48.960;9.108;2023-07-20T10:51:42;24.50;96.20
3086;DHT22;52812;48.960;9.108;2023-07-20T10:56:43;24.30;95.80
3086;DHT22;52812;48.960;9.108;2023-07-20T10:59:38;24.80;96.20
3086;DHT22;52812;48.960;9.108;2023-07-20T11:02:08;25.20;95.30
3086;DHT22;52812;48.960;9.108;2023-07-20T11:07:06;24.80;95.50
3086;DHT22;52812;48.960;9.108;2023-07-20T11:09:37;24.70;95.50
3086;DHT22;52812;48.960;9.108;2023-07-20T11:12:13;24.80;95.70
3086;DHT22;52812;48.960;9.108;2023-07-20T11:14:56;25.00;95.50
3086;DHT22;52812;48.960;9.108;2023-07-20T11:17:30;24.60;94.70
3086;DHT22;52812;48.960;9.108;2023-07-20T11:19:56;24.20;93.90
3086;DHT22;52812;48.960;9.108;2023-07-20T11:22:22;24.30;93.60
3086;DHT22;52812;48.960;9.108;2023-07-20T11:24:48;24.30;94.00
3086;DHT22;52812;48.960;9.108;2023-07-20T11:27:15;24.50;95.20
3086;DHT22;52812;48.960;9.108;2023-07-20T11:29:40;24.60;95.00
3086;DHT22;52812;48.960;9.108;2023-07-20T11:32:06;24.90;95.40
3086;DHT22;52812;48.960;9.108;2023-07-20T11:34:33;24.90;95.20
3086;DHT22;52812;48.960;9.108;2023-07-20T11:36:59;25.10;94.30
3086;DHT22;52812;48.960;9.108;2023-07-20T11:39:25;24.90;95.50
3086;DHT22;52812;48.960;9.108;2023-07-20T11:41:57;24.50;94.90
3086;DHT22;52812;48.960;9.108;2023-07-20T11:44:26;24.70;95.90
3086;DHT22;52812;48.960;9.108;2023-07-20T11:47:09;24.60;95.50
3086;DHT22;52812;48.960;9.108;2023-07-20T11:49:37;24.80;95.70
3086;DHT22;52812;48.960;9.108;2023-07-20T11:52:04;24.80;95.10
3086;DHT22;52812;48.960;9.108;2023-07-20T11:54:30;24.40;94.30
3086;DHT22;52812;48.960;9.108;2023-07-20T11:56:56;24.20;95.20
3086;DHT22;52812;48.960;9.108;2023-07-20T11:59:25;24.00;94.90
3086;DHT22;52812;48.960;9.108;2023-07-20T12:01:52;24.10;95.10
3086;DHT22;52812;48.960;9.108;2023-07-20T12:04:18;24.40;94.70
3086;DHT22;52812;48.960;9.108;2023-07-20T12:06:45;24.70;95.20
3086;DHT22;52812;48.960;9.108;2023-07-20T12:09:14;24.70;93.50
3086;DHT22;52812;48.960;9.108;2023-07-20T12:11:43;24.90;93.90
3086;DHT22;52812;48.960;9.108;2023-07-20T12:14:10;24.80;92.90
3086;DHT22;52812;48.960;9.108;2023-07-20T12:16:37;25.00;92.80
3086;DHT22;52812;48.960;9.108;2023-07-20T12:19:08;25.10;94.40
3086;DHT22;52812;48.960;9.108;2023-07-20T12:21:35;25.10;92.20
3086;DHT22;52812;48.960;9.108;2023-07-20T12:24:03;25.00;91.40
3086;DHT22;52812;48.960;9.108;2023-07-20T12:26:33;25.00;92.50
3086;DHT22;52812;48.960;9.108;2023-07-20T12:28:59;25.30;93.40
3086;DHT22;52812;48.960;9.108;2023-07-20T12:31:25;25.20;91.80
3086;DHT22;52812;48.960;9.108;2023-07-20T12:33:51;25.30;91.90
3086;DHT22;52812;48.960;9.108;2023-07-20T12:36:18;24.70;90.90
3086;DHT22;52812;48.960;9.108;2023-07-20T12:38:44;24.50;91.60
3086;DHT22;52812;48.960;9.108;2023-07-20T12:41:11;24.40;92.30
3086;DHT22;52812;48.960;9.108;2023-07-20T12:43:40;24.60;92.20
3086;DHT22;52812;48.960;9.108;2023-07-20T12:46:06;24.70;91.70
3086;DHT22;52812;48.960;9.108;2023-07-20T12:48:32;24.80;91.50
3086;DHT22;52812;48.960;9.108;2023-07-20T12:50:57;24.90;92.10
3086;DHT22;52812;48.960;9.108;2023-07-20T12:53:23;25.00;92.00
3086;DHT22;52812;48.960;9.108;2023-07-20T12:55:48;25.00;92.20
3086;DHT22;52812;48.960;9.108;2023-07-20T12:58:15;25.10;92.40
3086;DHT22;52812;48.960;9.108;2023-07-20T13:00:41;25.20;92.70
3086;DHT22;52812;48.960;9.108;2023-07-20T13:03:07;25.30;91.70
3086;DHT22;52812;48.960;9.108;2023-07-20T13:05:34;25.50;91.20
3086;DHT22;52812;48.960;9.108;2023-07-20T13:08:00;25.30;92.00
3086;DHT22;52812;48.960;9.108;2023-07-20T13:10:26;25.30;91.30
3086;DHT22;52812;48.960;9.108;2023-07-20T13:12:52;25.20;91.30
3086;DHT22;52812;48.960;9.108;2023-07-20T13:15:18;25.20;91.50
3086;DHT22;52812;48.960;9.108;2023-07-20T13:17:44;25.00;91.70
3086;DHT22;52812;48.960;9.108;2023-07-20T13:20:10;25.20;92.00
3086;DHT22;52812;48.960;9.108;2023-07-20T13:22:40;25.20;91.60
3086;DHT22;52812;48.960;9.108;2023-07-20T13:25:06;25.20;91.30
3086;DHT22;52812;48.960;9.108;2023-07-20T13:27:32;25.10;90.90
3086;DHT22;52812;48.960;9.108;2023-07-20T13:30:01;25.20;91.30
3086;DHT22;52812;48.960;9.108;2023-07-20T13:32:31;25.00;91.00
3086;DHT22;52812;48.960;9.108;2023-07-20T13:34:57;25.10;91.20
3086;DHT22;52812;48.960;9.108;2023-07-20T13:37:23;25.30;91.10
3086;DHT22;52812;48.960;9.108;2023-07-20T13:39:48;25.20;91.40
3086;DHT22;52812;48.960;9.108;2023-07-20T13:42:14;25.10;90.80
3086;DHT22;52812;48.960;9.108;2023-07-20T13:44:40;25.00;90.60
3086;DHT22;52812;48.960;9.108;2023-07-20T13:47:06;25.10;91.70
3086;DHT22;52812;48.960;9.108;2023-07-20T13:49:32;25.70;92.80
3086;DHT22;52812;48.960;9.108;2023-07-20T13:51:58;25.80;90.80
3086;DHT22;52812;48.960;9.108;2023-07-20T13:54:24;25.90;90.50
3086;DHT22;52812;48.960;9.108;2023-07-20T13:56:50;25.80;90.70
3086;DHT22;52812;48.960;9.108;2023-07-20T13:59:15;25.70;89.90
3086;DHT22;52812;48.960;9.108;2023-07-20T14:01:41;25.70;90.50
3086;DHT22;52812;48.960;9.108;2023-07-20T14:04:07;25.50;90.30
3086;DHT22;52812;48.960;9.108;2023-07-20T14:06:33;25.70;92.90
3086;DHT22;52812;48.960;9.108;2023-07-20T14:08:59;26.10;91.10
3086;DHT22;52812;48.960;9.108;2023-07-20T14:11:26;26.40;90.40
3086;DHT22;52812;48.960;9.108;2023-07-20T14:13:52;26.50;90.80
3086;DHT22;52812;48.960;9.108;2023-07-20T14:16:22;26.10;89.70
3086;DHT22;52812;48.960;9.108;2023-07-20T14:18:48;26.00;89.80
3086;DHT22;52812;48.960;9.108;2023-07-20T14:21:18;26.20;91.40
3086;DHT22;52812;48.960;9.108;2023-07-20T14:23:49;25.90;88.40
3086;DHT22;52812;48.960;9.108;2023-07-20T14:26:15;25.80;89.60
3086;DHT22;52812;48.960;9.108;2023-07-20T14:28:40;25.80;87.80
3086;DHT22;52812;48.960;9.108;2023-07-20T14:31:06;25.70;89.90
3086;DHT22;52812;48.960;9.108;2023-07-20T14:33:32;25.80;90.10
3086;DHT22;52812;48.960;9.108;2023-07-20T14:35:58;25.60;88.50
3086;DHT22;52812;48.960;9.108;2023-07-20T14:38:23;25.40;87.70
3086;DHT22;52812;48.960;9.108;2023-07-20T14:40:49;25.30;90.20
3086;DHT22;52812;48.960;9.108;2023-07-20T14:43:14;25.40;87.40
3086;DHT22;52812;48.960;9.108;2023-07-20T14:45:43;25.30;90.20
3086;DHT22;52812;48.960;9.108;2023-07-20T14:48:08;25.20;90.10
3086;DHT22;52812;48.960;9.108;2023-07-20T14:50:34;25.40;89.80
3086;DHT22;52812;48.960;9.108;2023-07-20T14:53:00;25.20;87.10
3086;DHT22;52812;48.960;9.108;2023-07-20T14:55:26;25.00;88.50
3086;DHT22;52812;48.960;9.108;2023-07-20T14:57:51;25.00;87.60
3086;DHT22;52812;48.960;9.108;2023-07-20T15:00:18;25.20;90.10
3086;DHT22;52812;48.960;9.108;2023-07-20T15:02:43;25.20;88.60
3086;DHT22;52812;48.960;9.108;2023-07-20T15:05:10;25.20;88.30
3086;DHT22;52812;48.960;9.108;2023-07-20T15:07:37;25.10;87.10
3086;DHT22;52812;48.960;9.108;2023-07-20T15:10:03;25.20;89.30
3086;DHT22;52812;48.960;9.108;2023-07-20T15:12:32;25.10;87.80
3086;DHT22;52812;48.960;9.108;2023-07-20T15:15:12;25.10;90.90
3086;DHT22;52812;48.960;9.108;2023-07-20T15:17:38;25.00;88.30
3086;DHT22;52812;48.960;9.108;2023-07-20T15:20:06;25.00;88.20
3086;DHT22;52812;48.960;9.108;2023-07-20T15:22:35;25.10;89.20
3086;DHT22;52812;48.960;9.108;2023-07-20T15:25:02;25.30;88.60
3086;DHT22;52812;48.960;9.108;2023-07-20T15:27:27;25.50;88.50
3086;DHT22;52812;48.960;9.108;2023-07-20T15:29:53;25.20;87.50
3086;DHT22;52812;48.960;9.108;2023-07-20T15:32:18;25.20;86.00
3086;DHT22;52812;48.960;9.108;2023-07-20T15:34:44;25.10;87.10
3086;DHT22;52812;48.960;9.108;2023-07-20T15:37:11;25.20;86.50
3086;DHT22;52812;48.960;9.108;2023-07-20T15:39:37;25.20;86.70
3086;DHT22;52812;48.960;9.108;2023-07-20T15:42:03;25.20;88.10
3086;DHT22;52812;48.960;9.108;2023-07-20T15:44:29;25.20;87.40
3086;DHT22;52812;48.960;9.108;2023-07-20T15:46:55;25.20;86.80
3086;DHT22;52812;48.960;9.108;2023-07-20T15:49:21;25.00;84.80
3086;DHT22;52812;48.960;9.108;2023-07-20T15:51:48;24.90;85.20
3086;DHT22;52812;48.960;9.108;2023-07-20T15:54:14;24.90;86.20
3086;DHT22;52812;48.960;9.108;2023-07-20T15:56:41;24.90;86.40
3086;DHT22;52812;48.960;9.108;2023-07-20T15:59:09;24.90;86.90
3086;DHT22;52812;48.960;9.108;2023-07-20T16:01:35;24.80;87.70
3086;DHT22;52812;48.960;9.108;2023-07-20T16:04:01;24.90;86.20
3086;DHT22;52812;48.960;9.108;2023-07-20T16:06:27;25.00;85.30